PLF044 LOWI-EPWA
Flight info
| Callsign | PLF044 |
|---|---|
| Flight time | N/A |
| Altitude | 22000 |
| Route | KOGOL M726 KONIN/N0381F210 DCT BEPAS DCT VLM DCT ELVOT DCT OKENO DCT GOGUS DCT AGAVA |
| Aircraft | YK40/M-SDFIRWY/H |
Departure
| Time | 2026-05-06 09:01 |
|---|---|
| Airport | Innsbruck Airport (LOWI) |
Arrival
| Time | N/A |
|---|---|
| Airport | Warsaw Chopin Airport (EPWA) |
| Time | Latitude | Longitude | Altitude | Speed | Heading |
|---|---|---|---|---|---|
| 2026-05-06 08:37 | 47.25867 | 11.35387 | 1897 ft | 0 kts | 260° |
| 2026-05-06 08:55 | 47.25866 | 11.35376 | 1897 ft | 2 kts | 263° |
| 2026-05-06 08:55 | 47.25877 | 11.35326 | 1898 ft | 8 kts | 299° |
| 2026-05-06 08:55 | 47.25895 | 11.35216 | 1898 ft | 14 kts | 262° |
| 2026-05-06 08:55 | 47.25876 | 11.35049 | 1899 ft | 19 kts | 261° |
| 2026-05-06 08:56 | 47.25850 | 11.34816 | 1901 ft | 22 kts | 261° |
| 2026-05-06 08:56 | 47.25829 | 11.34614 | 1902 ft | 17 kts | 261° |
| 2026-05-06 08:56 | 47.25813 | 11.34470 | 1904 ft | 11 kts | 262° |
| 2026-05-06 08:56 | 47.25804 | 11.34372 | 1904 ft | 7 kts | 262° |
| 2026-05-06 08:57 | 47.25796 | 11.34306 | 1905 ft | 6 kts | 260° |
| 2026-05-06 08:57 | 47.25790 | 11.34249 | 1906 ft | 4 kts | 261° |
| 2026-05-06 08:57 | 47.25786 | 11.34205 | 1907 ft | 5 kts | 261° |
| 2026-05-06 08:57 | 47.25778 | 11.34132 | 1909 ft | 9 kts | 261° |
| 2026-05-06 08:58 | 47.25770 | 11.34016 | 1911 ft | 13 kts | 275° |
| 2026-05-06 08:58 | 47.25801 | 11.33894 | 1915 ft | 12 kts | 301° |
| 2026-05-06 08:58 | 47.25852 | 11.33795 | 1919 ft | 11 kts | 307° |
| 2026-05-06 08:58 | 47.25898 | 11.33705 | 1923 ft | 10 kts | 306° |
| 2026-05-06 08:59 | 47.25930 | 11.33613 | 1925 ft | 10 kts | 273° |
| 2026-05-06 08:59 | 47.25926 | 11.33508 | 1927 ft | 10 kts | 261° |
| 2026-05-06 08:59 | 47.25912 | 11.33401 | 1929 ft | 11 kts | 257° |
| 2026-05-06 08:59 | 47.25897 | 11.33274 | 1927 ft | 14 kts | 263° |
| 2026-05-06 09:00 | 47.25843 | 11.33143 | 1924 ft | 11 kts | 284° |
| 2026-05-06 09:00 | 47.25890 | 11.33188 | 1926 ft | 14 kts | 83° |
| 2026-05-06 09:00 | 47.25926 | 11.33552 | 1926 ft | 60 kts | 80° |
| 2026-05-06 09:00 | 47.26021 | 11.34407 | 1905 ft | 107 kts | 80° |
| 2026-05-06 09:01 | 47.26176 | 11.35656 | 1963 ft | 135 kts | 84° |
| 2026-05-06 09:01 | 47.26311 | 11.37089 | 2192 ft | 145 kts | 84° |
| 2026-05-06 09:01 | 47.26441 | 11.38576 | 2448 ft | 151 kts | 83° |
| 2026-05-06 09:01 | 47.26609 | 11.40144 | 2667 ft | 161 kts | 80° |
| 2026-05-06 09:02 | 47.26819 | 11.41798 | 2958 ft | 167 kts | 79° |
| 2026-05-06 09:02 | 47.27088 | 11.43504 | 3216 ft | 175 kts | 76° |
| 2026-05-06 09:02 | 47.27497 | 11.45318 | 3185 ft | 203 kts | 71° |
| 2026-05-06 09:02 | 47.28004 | 11.47365 | 3294 ft | 226 kts | 71° |
| 2026-05-06 09:03 | 47.28574 | 11.49624 | 3714 ft | 240 kts | 70° |
| 2026-05-06 09:03 | 47.29192 | 11.51937 | 4187 ft | 248 kts | 68° |
| 2026-05-06 09:03 | 47.29866 | 11.54289 | 4769 ft | 250 kts | 68° |
| 2026-05-06 09:03 | 47.30529 | 11.56627 | 5405 ft | 250 kts | 68° |
| 2026-05-06 09:04 | 47.31184 | 11.58972 | 6059 ft | 249 kts | 69° |
| 2026-05-06 09:04 | 47.31846 | 11.61342 | 6713 ft | 249 kts | 69° |
| 2026-05-06 09:04 | 47.32502 | 11.63677 | 7344 ft | 248 kts | 69° |
| 2026-05-06 09:04 | 47.33168 | 11.66022 | 7965 ft | 248 kts | 70° |
| 2026-05-06 09:05 | 47.33831 | 11.68323 | 8558 ft | 248 kts | 70° |
| 2026-05-06 09:05 | 47.34515 | 11.70670 | 9105 ft | 251 kts | 70° |
| 2026-05-06 09:05 | 47.35207 | 11.73026 | 9590 ft | 256 kts | 70° |
| 2026-05-06 09:05 | 47.35930 | 11.75459 | 10097 ft | 259 kts | 70° |
| 2026-05-06 09:06 | 47.36657 | 11.77900 | 10602 ft | 263 kts | 72° |
| 2026-05-06 09:06 | 47.37287 | 11.80406 | 11140 ft | 263 kts | 78° |
| 2026-05-06 09:06 | 47.37827 | 11.83014 | 11650 ft | 266 kts | 79° |
| 2026-05-06 09:06 | 47.38373 | 11.85639 | 12152 ft | 270 kts | 76° |
| 2026-05-06 09:07 | 47.39129 | 11.88178 | 12690 ft | 275 kts | 63° |
| 2026-05-06 09:07 | 47.40411 | 11.90285 | 13202 ft | 282 kts | 32° |
| 2026-05-06 09:07 | 47.42249 | 11.91083 | 13619 ft | 282 kts | 355° |
| 2026-05-06 09:07 | 47.44064 | 11.90270 | 13902 ft | 275 kts | 320° |
| 2026-05-06 09:08 | 47.45668 | 11.88664 | 14247 ft | 281 kts | 315° |
| 2026-05-06 09:08 | 47.47044 | 11.86669 | 14673 ft | 275 kts | 300° |
| 2026-05-06 09:08 | 47.48020 | 11.84251 | 15100 ft | 273 kts | 290° |
| 2026-05-06 09:08 | 47.48916 | 11.81741 | 15464 ft | 279 kts | 291° |
| 2026-05-06 09:09 | 47.49823 | 11.79197 | 15847 ft | 284 kts | 291° |
| 2026-05-06 09:09 | 47.50753 | 11.76583 | 16248 ft | 288 kts | 291° |
| 2026-05-06 09:09 | 47.51682 | 11.73968 | 16656 ft | 290 kts | 291° |
| 2026-05-06 09:09 | 47.52607 | 11.71344 | 17076 ft | 291 kts | 292° |
| 2026-05-06 09:10 | 47.53535 | 11.68675 | 17502 ft | 292 kts | 291° |
| 2026-05-06 09:10 | 47.54428 | 11.65985 | 17945 ft | 291 kts | 289° |
| 2026-05-06 09:10 | 47.55256 | 11.63268 | 18371 ft | 292 kts | 288° |
| 2026-05-06 09:10 | 47.56076 | 11.60533 | 18787 ft | 293 kts | 288° |
| 2026-05-06 09:11 | 47.56901 | 11.57761 | 19203 ft | 294 kts | 288° |
| 2026-05-06 09:11 | 47.57720 | 11.55012 | 19613 ft | 296 kts | 288° |
| 2026-05-06 09:11 | 47.58560 | 11.52200 | 20030 ft | 298 kts | 288° |
| 2026-05-06 09:11 | 47.59404 | 11.49392 | 20444 ft | 299 kts | 288° |
| 2026-05-06 09:12 | 47.60254 | 11.46581 | 20856 ft | 301 kts | 288° |
| 2026-05-06 09:12 | 47.61113 | 11.43763 | 21268 ft | 303 kts | 288° |
| 2026-05-06 09:12 | 47.61978 | 11.40944 | 21679 ft | 304 kts | 288° |
| 2026-05-06 09:12 | 47.62867 | 11.38071 | 22095 ft | 306 kts | 288° |
| 2026-05-06 09:13 | 47.63773 | 11.35239 | 22516 ft | 309 kts | 292° |
| 2026-05-06 09:13 | 47.65031 | 11.32602 | 22922 ft | 320 kts | 304° |
| 2026-05-06 09:13 | 47.66749 | 11.30288 | 22811 ft | 348 kts | 317° |
| 2026-05-06 09:13 | 47.68924 | 11.28424 | 22671 ft | 374 kts | 330° |
| 2026-05-06 09:14 | 47.71435 | 11.27170 | 22519 ft | 396 kts | 343° |
| 2026-05-06 09:14 | 47.74224 | 11.26615 | 22404 ft | 414 kts | 354° |
| 2026-05-06 09:14 | 47.77131 | 11.26832 | 22302 ft | 429 kts | 6° |
| 2026-05-06 09:14 | 47.80090 | 11.27937 | 22181 ft | 442 kts | 21° |
| 2026-05-06 09:15 | 47.82762 | 11.30229 | 22039 ft | 451 kts | 39° |
| 2026-05-06 09:15 | 47.84886 | 11.33614 | 21964 ft | 453 kts | 58° |
| 2026-05-06 09:15 | 47.86379 | 11.37693 | 21961 ft | 454 kts | 66° |
| 2026-05-06 09:15 | 47.88023 | 11.41714 | 22095 ft | 458 kts | 57° |
| 2026-05-06 09:16 | 47.89949 | 11.45566 | 21981 ft | 465 kts | 55° |
| 2026-05-06 09:16 | 47.91891 | 11.49440 | 21994 ft | 468 kts | 55° |
| 2026-05-06 09:16 | 47.93830 | 11.53331 | 22031 ft | 469 kts | 55° |
| 2026-05-06 09:16 | 47.95753 | 11.57209 | 22035 ft | 472 kts | 56° |
| 2026-05-06 09:17 | 47.97709 | 11.61173 | 22033 ft | 474 kts | 56° |
| 2026-05-06 09:17 | 47.99651 | 11.65126 | 22031 ft | 475 kts | 57° |
| 2026-05-06 09:17 | 48.01615 | 11.69137 | 22031 ft | 477 kts | 57° |
| 2026-05-06 09:17 | 48.03548 | 11.73100 | 22030 ft | 478 kts | 57° |
| 2026-05-06 09:18 | 48.05495 | 11.77101 | 22030 ft | 478 kts | 56° |
| 2026-05-06 09:18 | 48.07458 | 11.81153 | 22029 ft | 479 kts | 57° |
| 2026-05-06 09:18 | 48.09404 | 11.85188 | 22031 ft | 479 kts | 57° |
| 2026-05-06 09:18 | 48.11339 | 11.89217 | 22024 ft | 479 kts | 57° |
| 2026-05-06 09:19 | 48.13271 | 11.93255 | 22030 ft | 479 kts | 57° |
| 2026-05-06 09:19 | 48.15195 | 11.97290 | 22032 ft | 479 kts | 57° |
| 2026-05-06 09:19 | 48.17138 | 12.01379 | 22032 ft | 479 kts | 57° |
| 2026-05-06 09:19 | 48.19047 | 12.05411 | 22032 ft | 478 kts | 57° |
| 2026-05-06 09:20 | 48.20956 | 12.09455 | 22032 ft | 478 kts | 57° |
| 2026-05-06 09:20 | 48.22891 | 12.13569 | 22030 ft | 479 kts | 57° |
| 2026-05-06 09:20 | 48.24802 | 12.17647 | 22029 ft | 479 kts | 57° |
| 2026-05-06 09:20 | 48.26705 | 12.21723 | 22031 ft | 478 kts | 56° |
| 2026-05-06 09:21 | 48.28603 | 12.25828 | 22031 ft | 477 kts | 57° |
| 2026-05-06 09:21 | 48.30461 | 12.29892 | 22032 ft | 477 kts | 57° |
| 2026-05-06 09:21 | 48.32319 | 12.33986 | 22032 ft | 477 kts | 57° |
| 2026-05-06 09:21 | 48.34202 | 12.38165 | 22032 ft | 477 kts | 57° |
| 2026-05-06 09:22 | 48.36050 | 12.42290 | 22031 ft | 477 kts | 57° |
| 2026-05-06 09:22 | 48.37941 | 12.46389 | 22065 ft | 476 kts | 55° |
| 2026-05-06 09:22 | 48.39935 | 12.50342 | 22048 ft | 477 kts | 53° |
| 2026-05-06 09:22 | 48.41974 | 12.54284 | 22043 ft | 478 kts | 52° |
| 2026-05-06 09:23 | 48.44038 | 12.58239 | 21848 ft | 482 kts | 52° |
| 2026-05-06 09:23 | 48.46098 | 12.62168 | 21864 ft | 479 kts | 52° |
| 2026-05-06 09:23 | 48.48172 | 12.66126 | 21900 ft | 478 kts | 53° |
| 2026-05-06 09:23 | 48.50194 | 12.70084 | 21862 ft | 479 kts | 54° |
| 2026-05-06 09:24 | 48.52213 | 12.74080 | 21855 ft | 478 kts | 54° |
| 2026-05-06 09:24 | 48.54219 | 12.78084 | 21853 ft | 478 kts | 54° |
| 2026-05-06 09:24 | 48.56192 | 12.82051 | 21853 ft | 478 kts | 54° |
| 2026-05-06 09:24 | 48.58178 | 12.86068 | 21854 ft | 478 kts | 54° |
| 2026-05-06 09:25 | 48.60155 | 12.90091 | 21853 ft | 478 kts | 54° |
| 2026-05-06 09:25 | 48.62152 | 12.94174 | 21853 ft | 478 kts | 55° |
| 2026-05-06 09:25 | 48.64113 | 12.98199 | 21842 ft | 479 kts | 55° |
| 2026-05-06 09:25 | 48.66081 | 13.02254 | 21836 ft | 479 kts | 55° |
| 2026-05-06 09:26 | 48.68047 | 13.06320 | 21846 ft | 478 kts | 55° |
| 2026-05-06 09:26 | 48.70004 | 13.10380 | 21851 ft | 478 kts | 55° |
| 2026-05-06 09:26 | 48.71941 | 13.14406 | 21852 ft | 478 kts | 55° |
| 2026-05-06 09:26 | 48.73908 | 13.18501 | 21851 ft | 479 kts | 55° |
| 2026-05-06 09:27 | 48.75867 | 13.22586 | 21851 ft | 478 kts | 54° |
| 2026-05-06 09:27 | 48.77822 | 13.26672 | 21850 ft | 478 kts | 55° |
| 2026-05-06 09:27 | 48.79765 | 13.30703 | 21853 ft | 478 kts | 54° |
| 2026-05-06 09:27 | 48.81736 | 13.34742 | 21852 ft | 479 kts | 54° |
| 2026-05-06 09:28 | 48.83745 | 13.38835 | 21852 ft | 480 kts | 54° |
| 2026-05-06 09:28 | 48.85720 | 13.42846 | 21851 ft | 480 kts | 54° |
| 2026-05-06 09:28 | 48.87732 | 13.46926 | 21850 ft | 480 kts | 54° |
| 2026-05-06 09:28 | 48.89769 | 13.50908 | 21891 ft | 480 kts | 52° |
| 2026-05-06 09:29 | 48.91911 | 13.54880 | 21802 ft | 483 kts | 51° |
| 2026-05-06 09:29 | 48.94038 | 13.58780 | 21839 ft | 482 kts | 51° |
| 2026-05-06 09:29 | 48.96168 | 13.62655 | 21845 ft | 482 kts | 51° |
| 2026-05-06 09:29 | 48.98311 | 13.66574 | 21861 ft | 481 kts | 52° |
| 2026-05-06 09:30 | 49.00425 | 13.70550 | 21844 ft | 482 kts | 52° |
| 2026-05-06 09:30 | 49.02499 | 13.74495 | 21851 ft | 482 kts | 53° |
| 2026-05-06 09:30 | 49.04612 | 13.78547 | 21851 ft | 482 kts | 53° |
| 2026-05-06 09:30 | 49.06690 | 13.82549 | 21853 ft | 483 kts | 53° |
| 2026-05-06 09:31 | 49.08760 | 13.86549 | 21851 ft | 484 kts | 53° |
| 2026-05-06 09:31 | 49.10840 | 13.90578 | 21846 ft | 485 kts | 53° |
| 2026-05-06 09:31 | 49.12912 | 13.94604 | 21851 ft | 485 kts | 53° |
| 2026-05-06 09:31 | 49.14997 | 13.98660 | 21851 ft | 485 kts | 53° |
| 2026-05-06 09:32 | 49.17097 | 14.02751 | 21851 ft | 485 kts | 53° |
| 2026-05-06 09:32 | 49.19163 | 14.06781 | 21853 ft | 486 kts | 53° |
| 2026-05-06 09:32 | 49.21246 | 14.10850 | 21853 ft | 486 kts | 53° |
| 2026-05-06 09:32 | 49.23304 | 14.14874 | 21854 ft | 486 kts | 53° |
| 2026-05-06 09:33 | 49.25401 | 14.18980 | 21854 ft | 486 kts | 53° |
| 2026-05-06 09:33 | 49.27463 | 14.23025 | 21853 ft | 485 kts | 52° |
| 2026-05-06 09:33 | 49.29543 | 14.27141 | 21850 ft | 484 kts | 53° |
| 2026-05-06 09:33 | 49.31569 | 14.31190 | 21850 ft | 483 kts | 53° |
| 2026-05-06 09:34 | 49.33598 | 14.35275 | 21851 ft | 483 kts | 53° |
| 2026-05-06 09:34 | 49.35622 | 14.39372 | 21852 ft | 482 kts | 53° |
| 2026-05-06 09:34 | 49.37649 | 14.43488 | 21853 ft | 482 kts | 53° |
| 2026-05-06 09:34 | 49.39670 | 14.47604 | 21853 ft | 482 kts | 53° |
| 2026-05-06 09:35 | 49.41666 | 14.51677 | 21853 ft | 482 kts | 53° |
| 2026-05-06 09:35 | 49.43691 | 14.55815 | 21853 ft | 482 kts | 53° |
| 2026-05-06 09:35 | 49.45683 | 14.59891 | 21852 ft | 482 kts | 53° |
| 2026-05-06 09:35 | 49.47754 | 14.63967 | 21880 ft | 481 kts | 51° |
| 2026-05-06 09:36 | 49.49880 | 14.67985 | 21832 ft | 482 kts | 51° |
| 2026-05-06 09:36 | 49.51993 | 14.71935 | 21841 ft | 482 kts | 51° |
| 2026-05-06 09:36 | 49.54112 | 14.75867 | 21846 ft | 482 kts | 51° |
| 2026-05-06 09:36 | 49.55851 | 14.79085 | 21850 ft | 482 kts | 51° |
| 2026-05-06 09:37 | 49.58289 | 14.83605 | 21850 ft | 483 kts | 51° |
| 2026-05-06 09:37 | 49.60435 | 14.87595 | 21851 ft | 484 kts | 51° |
| 2026-05-06 09:37 | 49.62552 | 14.91541 | 21851 ft | 484 kts | 51° |
| 2026-05-06 09:37 | 49.64714 | 14.95585 | 21853 ft | 484 kts | 51° |
| 2026-05-06 09:38 | 49.66843 | 14.99577 | 21853 ft | 485 kts | 51° |
| 2026-05-06 09:38 | 49.68961 | 15.03560 | 21854 ft | 485 kts | 51° |
| 2026-05-06 09:38 | 49.71108 | 15.07611 | 21854 ft | 485 kts | 51° |
| 2026-05-06 09:38 | 49.73235 | 15.11636 | 21853 ft | 485 kts | 51° |
| 2026-05-06 09:39 | 49.75369 | 15.15684 | 21851 ft | 483 kts | 51° |
| 2026-05-06 09:39 | 49.77457 | 15.19659 | 21851 ft | 480 kts | 51° |
| 2026-05-06 09:39 | 49.79534 | 15.23620 | 21860 ft | 471 kts | 50° |
| 2026-05-06 09:39 | 49.81740 | 15.27317 | 21885 ft | 463 kts | 43° |
| 2026-05-06 09:40 | 49.84137 | 15.30568 | 21862 ft | 449 kts | 36° |
| 2026-05-06 09:40 | 49.86635 | 15.33268 | 21856 ft | 432 kts | 29° |
| 2026-05-06 09:40 | 49.91877 | 15.37256 | 21839 ft | 412 kts | 24° |
| 2026-05-06 09:41 | 49.94299 | 15.39559 | 21854 ft | 405 kts | 33° |
| 2026-05-06 09:41 | 49.96520 | 15.42192 | 21820 ft | 399 kts | 39° |
| 2026-05-06 09:41 | 49.98501 | 15.45114 | 21838 ft | 392 kts | 44° |
| 2026-05-06 09:41 | 50.00423 | 15.48130 | 21831 ft | 402 kts | 44° |
| 2026-05-06 09:42 | 50.02430 | 15.51294 | 21879 ft | 414 kts | 44° |
| 2026-05-06 09:42 | 50.04489 | 15.54545 | 21879 ft | 426 kts | 44° |
| 2026-05-06 09:42 | 50.06572 | 15.57841 | 21865 ft | 437 kts | 44° |
| 2026-05-06 09:42 | 50.08744 | 15.61283 | 21859 ft | 446 kts | 44° |
| 2026-05-06 09:43 | 50.10929 | 15.64745 | 21853 ft | 454 kts | 44° |
| 2026-05-06 09:43 | 50.13157 | 15.68279 | 21852 ft | 461 kts | 45° |
| 2026-05-06 09:43 | 50.15408 | 15.71847 | 21853 ft | 466 kts | 45° |
| 2026-05-06 09:43 | 50.17691 | 15.75467 | 21852 ft | 471 kts | 45° |
| 2026-05-06 09:44 | 50.20008 | 15.79092 | 21856 ft | 475 kts | 44° |
| 2026-05-06 09:44 | 50.22346 | 15.82718 | 21851 ft | 478 kts | 44° |
| 2026-05-06 09:44 | 50.24715 | 15.86383 | 21851 ft | 480 kts | 44° |
| 2026-05-06 09:44 | 50.27100 | 15.90070 | 21852 ft | 482 kts | 44° |
| 2026-05-06 09:45 | 50.29460 | 15.93713 | 21854 ft | 483 kts | 44° |
| 2026-05-06 09:45 | 50.31848 | 15.97397 | 21853 ft | 484 kts | 44° |
| 2026-05-06 09:45 | 50.34206 | 16.01037 | 21852 ft | 485 kts | 44° |
| 2026-05-06 09:45 | 50.36599 | 16.04736 | 21851 ft | 485 kts | 44° |
| 2026-05-06 09:46 | 50.39003 | 16.08458 | 21851 ft | 486 kts | 44° |
| 2026-05-06 09:46 | 50.41376 | 16.12141 | 21851 ft | 486 kts | 44° |
| 2026-05-06 09:46 | 50.43789 | 16.15893 | 21853 ft | 486 kts | 44° |
| 2026-05-06 09:46 | 50.46172 | 16.19609 | 21853 ft | 486 kts | 44° |
| 2026-05-06 09:47 | 50.48593 | 16.23396 | 21854 ft | 486 kts | 44° |
| 2026-05-06 09:47 | 50.50959 | 16.27105 | 21852 ft | 487 kts | 44° |
| 2026-05-06 09:47 | 50.53376 | 16.30898 | 21852 ft | 488 kts | 44° |
| 2026-05-06 09:47 | 50.55756 | 16.34631 | 21849 ft | 489 kts | 44° |
| 2026-05-06 09:48 | 50.58184 | 16.38444 | 21791 ft | 490 kts | 45° |
| 2026-05-06 09:48 | 50.60509 | 16.42318 | 21808 ft | 490 kts | 47° |
| 2026-05-06 09:48 | 50.62715 | 16.46394 | 21798 ft | 490 kts | 51° |
| 2026-05-06 09:48 | 50.64783 | 16.50642 | 21793 ft | 490 kts | 54° |
| 2026-05-06 09:49 | 50.66738 | 16.55126 | 21791 ft | 490 kts | 57° |
| 2026-05-06 09:49 | 50.68657 | 16.59561 | 21803 ft | 490 kts | 54° |
| 2026-05-06 09:49 | 50.70650 | 16.63886 | 21761 ft | 491 kts | 54° |
| 2026-05-06 09:49 | 50.72671 | 16.68217 | 21795 ft | 490 kts | 54° |
| 2026-05-06 09:50 | 50.74678 | 16.72482 | 21795 ft | 490 kts | 54° |
| 2026-05-06 09:50 | 50.76754 | 16.76874 | 21794 ft | 489 kts | 53° |
| 2026-05-06 09:50 | 50.78759 | 16.81120 | 21794 ft | 489 kts | 53° |
| 2026-05-06 09:50 | 50.80788 | 16.85425 | 21794 ft | 488 kts | 53° |
| 2026-05-06 09:51 | 50.82826 | 16.89763 | 21792 ft | 488 kts | 53° |
| 2026-05-06 09:51 | 50.84850 | 16.94085 | 21792 ft | 488 kts | 53° |
| 2026-05-06 09:51 | 50.86872 | 16.98415 | 21791 ft | 488 kts | 53° |
| 2026-05-06 09:51 | 50.88869 | 17.02706 | 21792 ft | 488 kts | 53° |
| 2026-05-06 09:52 | 50.90908 | 17.07100 | 21793 ft | 488 kts | 54° |
| 2026-05-06 09:52 | 50.92923 | 17.11455 | 21795 ft | 488 kts | 54° |
| 2026-05-06 09:52 | 50.94923 | 17.15794 | 21795 ft | 488 kts | 54° |
| 2026-05-06 09:52 | 50.96929 | 17.20160 | 21794 ft | 488 kts | 54° |
| 2026-05-06 09:53 | 50.98910 | 17.24487 | 21793 ft | 488 kts | 54° |
| 2026-05-06 09:53 | 51.00923 | 17.28896 | 21791 ft | 488 kts | 54° |
| 2026-05-06 09:53 | 51.02910 | 17.33257 | 21791 ft | 489 kts | 54° |
| 2026-05-06 09:53 | 51.04912 | 17.37656 | 21792 ft | 489 kts | 54° |
| 2026-05-06 09:54 | 51.06892 | 17.42016 | 21793 ft | 489 kts | 54° |
| 2026-05-06 09:54 | 51.08893 | 17.46433 | 21794 ft | 490 kts | 54° |
| 2026-05-06 09:54 | 51.10868 | 17.50841 | 21807 ft | 489 kts | 55° |
| 2026-05-06 09:54 | 51.12801 | 17.55308 | 21789 ft | 490 kts | 56° |
| 2026-05-06 09:55 | 51.14730 | 17.59826 | 21791 ft | 489 kts | 56° |
| 2026-05-06 09:55 | 51.16632 | 17.64330 | 21791 ft | 489 kts | 56° |
| 2026-05-06 09:55 | 51.18513 | 17.68821 | 21794 ft | 489 kts | 57° |
| 2026-05-06 09:55 | 51.20388 | 17.73327 | 21794 ft | 489 kts | 57° |
| 2026-05-06 09:56 | 51.22263 | 17.77860 | 21795 ft | 488 kts | 57° |
| 2026-05-06 09:56 | 51.24133 | 17.82408 | 21792 ft | 487 kts | 57° |
| 2026-05-06 09:56 | 51.25952 | 17.86863 | 21793 ft | 485 kts | 58° |
| 2026-05-06 09:56 | 51.27816 | 17.91431 | 21794 ft | 484 kts | 58° |
| 2026-05-06 09:57 | 51.29639 | 17.95888 | 21794 ft | 483 kts | 58° |
| 2026-05-06 09:57 | 51.31478 | 18.00379 | 21794 ft | 483 kts | 57° |
| 2026-05-06 09:57 | 51.33322 | 18.04881 | 21793 ft | 483 kts | 57° |
| 2026-05-06 09:57 | 51.35183 | 18.09422 | 21792 ft | 483 kts | 57° |
| 2026-05-06 09:58 | 51.37012 | 18.13892 | 21791 ft | 483 kts | 57° |
| 2026-05-06 09:58 | 51.38861 | 18.18411 | 21791 ft | 482 kts | 57° |
| 2026-05-06 09:58 | 51.40700 | 18.22909 | 21792 ft | 482 kts | 57° |
| 2026-05-06 09:58 | 51.42512 | 18.27344 | 21792 ft | 483 kts | 57° |
| 2026-05-06 09:59 | 51.44357 | 18.31879 | 21795 ft | 484 kts | 57° |
| 2026-05-06 09:59 | 51.46201 | 18.36431 | 21795 ft | 485 kts | 57° |
| 2026-05-06 09:59 | 51.48011 | 18.40911 | 21795 ft | 485 kts | 57° |
| 2026-05-06 09:59 | 51.49852 | 18.45481 | 21794 ft | 486 kts | 57° |
| 2026-05-06 10:00 | 51.51672 | 18.50004 | 21793 ft | 486 kts | 57° |
| 2026-05-06 10:00 | 51.53502 | 18.54560 | 21792 ft | 486 kts | 57° |
| 2026-05-06 10:00 | 51.55296 | 18.59181 | 21832 ft | 484 kts | 62° |
| 2026-05-06 10:00 | 51.56366 | 18.64191 | 21838 ft | 480 kts | 82° |
| 2026-05-06 10:01 | 51.56542 | 18.69551 | 21727 ft | 480 kts | 92° |
| 2026-05-06 10:01 | 51.56597 | 18.74909 | 21747 ft | 478 kts | 92° |
| 2026-05-06 10:01 | 51.56657 | 18.80212 | 21772 ft | 478 kts | 91° |
| 2026-05-06 10:01 | 51.56713 | 18.85583 | 21785 ft | 479 kts | 91° |
| 2026-05-06 10:02 | 51.56756 | 18.90930 | 21790 ft | 480 kts | 91° |
| 2026-05-06 10:02 | 51.56789 | 18.96272 | 21794 ft | 480 kts | 91° |
| 2026-05-06 10:02 | 51.56816 | 19.01673 | 21794 ft | 481 kts | 91° |
| 2026-05-06 10:02 | 51.56837 | 19.07020 | 21793 ft | 481 kts | 91° |
| 2026-05-06 10:03 | 51.56854 | 19.12397 | 21792 ft | 481 kts | 91° |
| 2026-05-06 10:03 | 51.56869 | 19.17771 | 21791 ft | 481 kts | 91° |
| 2026-05-06 10:03 | 51.56882 | 19.23166 | 21792 ft | 481 kts | 91° |
| 2026-05-06 10:03 | 51.56893 | 19.28513 | 21791 ft | 482 kts | 91° |
| 2026-05-06 10:04 | 51.56904 | 19.33875 | 21793 ft | 483 kts | 91° |
| 2026-05-06 10:04 | 51.56915 | 19.39289 | 21794 ft | 483 kts | 91° |
| 2026-05-06 10:04 | 51.56926 | 19.44659 | 21795 ft | 484 kts | 91° |
| 2026-05-06 10:04 | 51.57001 | 19.50038 | 21804 ft | 484 kts | 89° |
| 2026-05-06 10:05 | 51.57128 | 19.55530 | 21774 ft | 485 kts | 89° |
| 2026-05-06 10:05 | 51.57269 | 19.60940 | 21785 ft | 485 kts | 89° |
| 2026-05-06 10:05 | 51.57419 | 19.66332 | 21789 ft | 485 kts | 89° |
| 2026-05-06 10:05 | 51.57573 | 19.71817 | 21795 ft | 485 kts | 89° |
| 2026-05-06 10:06 | 51.57710 | 19.77245 | 21569 ft | 490 kts | 90° |
| 2026-05-06 10:06 | 51.57843 | 19.82503 | 20815 ft | 454 kts | 90° |
| 2026-05-06 10:06 | 51.57941 | 19.87309 | 20191 ft | 411 kts | 91° |
| 2026-05-06 10:06 | 51.58024 | 19.91705 | 19793 ft | 373 kts | 91° |
| 2026-05-06 10:07 | 51.58087 | 19.95713 | 19275 ft | 348 kts | 93° |
| 2026-05-06 10:07 | 51.58095 | 19.99478 | 18739 ft | 329 kts | 94° |
| 2026-05-06 10:07 | 51.58094 | 20.03017 | 18188 ft | 314 kts | 94° |
| 2026-05-06 10:07 | 51.58086 | 20.06480 | 17620 ft | 303 kts | 95° |
| 2026-05-06 10:08 | 51.57978 | 20.09751 | 17276 ft | 292 kts | 99° |
| 2026-05-06 10:08 | 51.57777 | 20.13091 | 17010 ft | 309 kts | 100° |
| 2026-05-06 10:08 | 51.57537 | 20.16616 | 16772 ft | 323 kts | 100° |
| 2026-05-06 10:08 | 51.57270 | 20.20280 | 16559 ft | 334 kts | 101° |
| 2026-05-06 10:09 | 51.56988 | 20.24034 | 16365 ft | 342 kts | 101° |
| 2026-05-06 10:09 | 51.56694 | 20.27858 | 16190 ft | 348 kts | 101° |
| 2026-05-06 10:09 | 51.56402 | 20.31693 | 16032 ft | 352 kts | 101° |
| 2026-05-06 10:09 | 51.56103 | 20.35656 | 15879 ft | 355 kts | 101° |
| 2026-05-06 10:10 | 51.55811 | 20.39565 | 15736 ft | 358 kts | 100° |
| 2026-05-06 10:10 | 51.55758 | 20.43576 | 15707 ft | 360 kts | 89° |
| 2026-05-06 10:10 | 51.56226 | 20.47571 | 15681 ft | 363 kts | 76° |
| 2026-05-06 10:10 | 51.57184 | 20.51353 | 15481 ft | 370 kts | 65° |
| 2026-05-06 10:11 | 51.58367 | 20.55074 | 15162 ft | 376 kts | 64° |
| 2026-05-06 10:11 | 51.59563 | 20.58872 | 14832 ft | 381 kts | 65° |
| 2026-05-06 10:11 | 51.60729 | 20.62607 | 14516 ft | 385 kts | 65° |
| 2026-05-06 10:11 | 51.61879 | 20.66315 | 14208 ft | 387 kts | 66° |
| 2026-05-06 10:12 | 51.63093 | 20.70243 | 13887 ft | 388 kts | 66° |
| 2026-05-06 10:12 | 51.64291 | 20.74133 | 13575 ft | 389 kts | 66° |
| 2026-05-06 10:12 | 51.65484 | 20.78017 | 13265 ft | 389 kts | 66° |
| 2026-05-06 10:12 | 51.66683 | 20.81938 | 12957 ft | 390 kts | 66° |
| 2026-05-06 10:13 | 51.67903 | 20.85840 | 12678 ft | 389 kts | 63° |
| 2026-05-06 10:13 | 51.69353 | 20.89506 | 12493 ft | 388 kts | 56° |
| 2026-05-06 10:13 | 51.71068 | 20.92821 | 12309 ft | 386 kts | 48° |
| 2026-05-06 10:13 | 51.73081 | 20.95700 | 12142 ft | 384 kts | 37° |
| 2026-05-06 10:14 | 51.75377 | 20.97868 | 12025 ft | 384 kts | 25° |
| 2026-05-06 10:14 | 51.77921 | 20.99290 | 11857 ft | 388 kts | 11° |
| 2026-05-06 10:14 | 51.80574 | 20.99479 | 11724 ft | 386 kts | 350° |
| 2026-05-06 10:14 | 51.83214 | 20.98605 | 11526 ft | 388 kts | 346° |
| 2026-05-06 10:15 | 51.85888 | 20.98056 | 11345 ft | 393 kts | 354° |
| 2026-05-06 10:15 | 51.88646 | 20.97951 | 11116 ft | 397 kts | 357° |
| 2026-05-06 10:15 | 51.91349 | 20.97906 | 10705 ft | 378 kts | 357° |
| 2026-05-06 10:15 | 51.93894 | 20.97780 | 10235 ft | 352 kts | 355° |
| 2026-05-06 10:16 | 51.96240 | 20.97611 | 9756 ft | 327 kts | 355° |
| 2026-05-06 10:16 | 51.98411 | 20.97430 | 9477 ft | 299 kts | 354° |
| 2026-05-06 10:16 | 52.00399 | 20.97254 | 9245 ft | 277 kts | 354° |
| 2026-05-06 10:16 | 52.02274 | 20.97088 | 8978 ft | 265 kts | 354° |
| 2026-05-06 10:17 | 52.04110 | 20.96922 | 8707 ft | 265 kts | 354° |
| 2026-05-06 10:17 | 52.05912 | 20.96578 | 8479 ft | 259 kts | 342° |
| 2026-05-06 10:17 | 52.07536 | 20.95290 | 8276 ft | 260 kts | 313° |
| 2026-05-06 10:17 | 52.08623 | 20.92999 | 8109 ft | 262 kts | 297° |
| 2026-05-06 10:18 | 52.09543 | 20.90391 | 7944 ft | 267 kts | 293° |
| 2026-05-06 10:18 | 52.10275 | 20.87600 | 7843 ft | 266 kts | 285° |
| 2026-05-06 10:18 | 52.10863 | 20.84723 | 7632 ft | 272 kts | 284° |
| 2026-05-06 10:18 | 52.11456 | 20.81800 | 7409 ft | 276 kts | 284° |
| 2026-05-06 10:19 | 52.12083 | 20.78933 | 7194 ft | 257 kts | 288° |
| 2026-05-06 10:19 | 52.12778 | 20.76371 | 6955 ft | 241 kts | 290° |
| 2026-05-06 10:19 | 52.13463 | 20.73972 | 6673 ft | 232 kts | 290° |
| 2026-05-06 10:19 | 52.14152 | 20.71599 | 6380 ft | 235 kts | 290° |
| 2026-05-06 10:20 | 52.14887 | 20.69090 | 6105 ft | 248 kts | 290° |
| 2026-05-06 10:20 | 52.15647 | 20.66496 | 5851 ft | 257 kts | 291° |
| 2026-05-06 10:20 | 52.16447 | 20.63857 | 5626 ft | 263 kts | 293° |
| 2026-05-06 10:20 | 52.17289 | 20.61210 | 5427 ft | 266 kts | 293° |
| 2026-05-06 10:21 | 52.18144 | 20.58516 | 5284 ft | 264 kts | 292° |
| 2026-05-06 10:21 | 52.18908 | 20.55933 | 5127 ft | 244 kts | 291° |
| 2026-05-06 10:21 | 52.19624 | 20.53507 | 4929 ft | 232 kts | 291° |
| 2026-05-06 10:21 | 52.20317 | 20.51149 | 4715 ft | 229 kts | 291° |
| 2026-05-06 10:22 | 52.21009 | 20.48792 | 4493 ft | 228 kts | 291° |
| 2026-05-06 10:22 | 52.21683 | 20.46496 | 4310 ft | 225 kts | 291° |
| 2026-05-06 10:22 | 52.22359 | 20.44197 | 4183 ft | 221 kts | 291° |
| 2026-05-06 10:22 | 52.23177 | 20.42100 | 4092 ft | 220 kts | 305° |
| 2026-05-06 10:23 | 52.24316 | 20.40342 | 4021 ft | 240 kts | 322° |
| 2026-05-06 10:23 | 52.25961 | 20.39355 | 3946 ft | 266 kts | 357° |
| 2026-05-06 10:23 | 52.27758 | 20.40082 | 3919 ft | 272 kts | 31° |
| 2026-05-06 10:23 | 52.29271 | 20.41902 | 3890 ft | 275 kts | 50° |
| 2026-05-06 10:24 | 52.30156 | 20.44611 | 3747 ft | 269 kts | 85° |
| 2026-05-06 10:24 | 52.29982 | 20.47393 | 3591 ft | 230 kts | 117° |
| 2026-05-06 10:24 | 52.29355 | 20.49616 | 3341 ft | 204 kts | 120° |